Time;durP1;ratioP1;P1;durP2;ratioP2;P2;SDS_P1;SDS_P2;PMS_P1;PMS_P2;Temp;Humidity;BMP_temperature;BMP_pressure;BME280_temperature;BME280_humidity;BME280_pressure;Samples;Min_cycle;Max_cycle;Signal;HPM_P1;HPM_P2
2021/11/23 00:02:10;;;;;;;;;;;;;;;10.92;100.00;102952.63;5052571;28;20074;-60
2021/11/23 00:04:35;;;;;;;;;;;;;;;10.93;100.00;102946.28;5052064;28;19916;-59
2021/11/23 00:07:00;;;;;;;;;;;;;;;10.96;100.00;102943.31;5053353;28;20289;-61
2021/11/23 00:09:27;;;;;;;;;;;;;;;11.01;100.00;102947.22;5052955;28;19920;-60
2021/11/23 00:11:52;;;;;;;;;;;;;;;10.98;100.00;102952.06;5053167;28;19920;-60
2021/11/23 00:14:17;;;;;;;;;;;;;;;10.98;100.00;102952.88;5053232;28;19970;-59
2021/11/23 00:16:43;;;;;;;;;;;;;;;10.97;100.00;102950.38;5053874;28;19920;-58
2021/11/23 00:19:08;;;;;;;;;;;;;;;11.07;100.00;102945.81;5053322;28;19924;-59
2021/11/23 00:21:34;;;;;;;;;;;;;;;11.00;100.00;102950.91;5053312;28;19917;-61
2021/11/23 00:23:59;;;;;;;;;;;;;;;11.04;100.00;102943.44;5053441;28;20272;-58
2021/11/23 00:26:25;;;;;;;;;;;;;;;11.14;100.00;102940.72;5053517;28;19912;-59
2021/11/23 00:28:51;;;;;;;;;;;;;;;11.15;100.00;102947.75;5051932;28;19921;-59
2021/11/23 00:31:16;;;;;;;;;;;;;;;11.09;100.00;102948.34;5052352;28;20019;-60
2021/11/23 00:33:42;;;;;;;;;;;;;;;11.13;100.00;102934.50;5053982;28;19928;-56
2021/11/23 00:36:08;;;;;;;;;;;;;;;11.13;100.00;102928.31;5085858;28;20019;-58
2021/11/23 00:38:34;;;;;;;;;;;;;;;11.10;100.00;102928.63;5053682;28;19978;-58
2021/11/23 00:40:59;;;;;;;;;;;;;;;11.02;100.00;102926.66;5053764;28;20071;-59
2021/11/23 00:43:25;;;;;;;;;;;;;;;11.01;100.00;102919.63;5054327;28;19917;-59
2021/11/23 00:45:50;;;;;;;;;;;;;;;11.12;100.00;102921.28;5069668;28;19970;-59
2021/11/23 00:48:16;;;;;;;;;;;;;;;11.17;100.00;102924.34;5087657;28;19921;-58
2021/11/23 00:50:41;;;;;;;;;;;;;;;11.25;100.00;102929.78;5039279;28;19924;-58
2021/11/23 00:53:06;;;;;;;;;;;;;;;11.36;100.00;102927.94;5056932;28;19917;-58
2021/11/23 00:55:32;;;;;;;;;;;;;;;11.47;100.00;102930.38;5057047;28;20095;-58
2021/11/23 00:57:57;;;;;;;;;;;;;;;11.59;100.00;102915.78;5056705;28;20288;-58
2021/11/23 01:00:23;;;;;;;;;;;;;;;11.67;100.00;102927.59;5056741;28;19924;-60
2021/11/23 01:02:49;;;;;;;;;;;;;;;11.78;100.00;102924.69;5056333;28;20325;-59
2021/11/23 01:05:14;;;;;;;;;;;;;;;11.86;100.00;102927.47;5056944;28;20316;-59
2021/11/23 01:07:40;;;;;;;;;;;;;;;11.95;100.00;102930.19;5089264;28;19913;-58
2021/11/23 01:10:06;;;;;;;;;;;;;;;11.99;100.00;102926.22;5055786;28;20284;-59
2021/11/23 01:12:32;;;;;;;;;;;;;;;12.04;100.00;102922.13;5055991;28;19921;-60
2021/11/23 01:14:57;;;;;;;;;;;;;;;12.11;100.00;102922.34;5056350;28;19924;-59
2021/11/23 01:17:22;;;;;;;;;;;;;;;12.16;100.00;102919.22;5056020;28;19924;-59
2021/11/23 01:19:48;;;;;;;;;;;;;;;12.17;100.00;102918.22;5054303;28;20373;-59
2021/11/23 01:22:13;;;;;;;;;;;;;;;12.17;100.00;102912.84;5055893;28;19942;-59
2021/11/23 01:24:38;;;;;;;;;;;;;;;12.16;100.00;102913.84;5071405;28;20011;-61
2021/11/23 01:27:05;;;;;;;;;;;;;;;12.04;100.00;102902.50;5055692;28;19917;-58
2021/11/23 01:29:33;;;;;;;;;;;;;;;11.98;100.00;102908.44;5056361;28;19929;-58
2021/11/23 01:31:58;;;;;;;;;;;;;;;11.99;100.00;102904.75;5055084;28;19916;-57
2021/11/23 01:34:24;;;;;;;;;;;;;;;12.04;100.00;102910.56;5055657;28;19916;-59
2021/11/23 01:36:50;;;;;;;;;;;;;;;12.15;100.00;102913.00;5055265;28;19956;-60
2021/11/23 01:39:15;;;;;;;;;;;;;;;12.08;100.00;102906.56;5087231;28;19960;-59
2021/11/23 01:41:41;;;;;;;;;;;;;;;12.24;100.00;102905.03;5054356;28;19921;-59
2021/11/23 01:44:06;;;;;;;;;;;;;;;12.32;100.00;102911.28;5053811;28;19924;-58
2021/11/23 01:46:32;;;;;;;;;;;;;;;12.38;100.00;102922.41;5055247;28;19935;-58
2021/11/23 01:48:58;;;;;;;;;;;;;;;12.37;100.00;102916.19;5055611;28;19989;-59
2021/11/23 01:51:23;;;;;;;;;;;;;;;12.46;100.00;102917.94;5055385;28;20356;-60
2021/11/23 01:53:49;;;;;;;;;;;;;;;12.58;100.00;102920.34;5054115;28;20005;-59
2021/11/23 01:56:14;;;;;;;;;;;;;;;12.55;100.00;102921.50;5055516;28;19913;-58
2021/11/23 01:58:40;;;;;;;;;;;;;;;12.56;100.00;102916.97;5055150;28;19923;-59
2021/11/23 02:01:07;;;;;;;;;;;;;;;12.59;100.00;102922.03;5055590;28;19923;-59
2021/11/23 02:03:36;;;;;;;;;;;;;;;12.60;100.00;102921.88;5055600;28;19956;-60
2021/11/23 02:06:02;;;;;;;;;;;;;;;12.46;100.00;102926.00;5055357;28;19952;-58
2021/11/23 02:08:27;;;;;;;;;;;;;;;12.39;100.00;102919.53;5054919;28;20399;-59
2021/11/23 02:10:53;;;;;;;;;;;;;;;12.38;100.00;102920.53;5059805;28;20414;-59
2021/11/23 02:13:19;;;;;;;;;;;;;;;12.43;100.00;102920.91;5089751;28;19946;-60
2021/11/23 02:15:45;;;;;;;;;;;;;;;12.57;100.00;102914.16;5055423;28;19917;-59
2021/11/23 02:18:14;;;;;;;;;;;;;;;12.65;100.00;102913.34;5087479;28;20008;-59
2021/11/23 02:20:40;;;;;;;;;;;;;;;12.64;100.00;102908.97;5054863;28;19917;-59
2021/11/23 02:23:05;;;;;;;;;;;;;;;12.40;100.00;102904.31;5054970;28;19967;-58
2021/11/23 02:25:31;;;;;;;;;;;;;;;12.28;100.00;102911.75;5087265;28;20021;-59
2021/11/23 02:27:56;;;;;;;;;;;;;;;12.43;100.00;102899.44;5054736;28;19921;-58
2021/11/23 02:30:22;;;;;;;;;;;;;;;12.64;100.00;102898.22;5055093;28;20022;-59
2021/11/23 02:32:52;;;;;;;;;;;;;;;12.71;100.00;102893.94;5054673;28;20020;-60
2021/11/23 02:35:18;;;;;;;;;;;;;;;12.71;100.00;102891.25;5055252;28;19916;-60
2021/11/23 02:37:45;;;;;;;;;;;;;;;12.81;100.00;102898.34;5055511;28;19917;-60
2021/11/23 02:40:11;;;;;;;;;;;;;;;12.81;100.00;102890.28;5055052;28;19999;-58
2021/11/23 02:42:37;;;;;;;;;;;;;;;12.86;100.00;102890.63;5054974;28;19960;-59
2021/11/23 02:45:03;;;;;;;;;;;;;;;12.82;100.00;102891.97;5070031;28;19924;-59
2021/11/23 02:47:31;;;;;;;;;;;;;;;12.87;100.00;102879.75;5054895;28;20334;-59
2021/11/23 02:49:56;;;;;;;;;;;;;;;12.73;100.00;102883.88;5087178;28;19999;-58
2021/11/23 02:52:22;;;;;;;;;;;;;;;12.82;100.00;102870.47;5053588;28;20388;-61
2021/11/23 02:54:54;;;;;;;;;;;;;;;12.88;100.00;102869.84;5053095;28;20249;-59
2021/11/23 02:57:30;;;;;;;;;;;;;;;12.90;100.00;102867.81;5054290;28;19926;-60
2021/11/23 02:59:56;;;;;;;;;;;;;;;12.93;100.00;102867.53;5054169;28;19916;-58
2021/11/23 03:02:22;;;;;;;;;;;;;;;12.97;100.00;102874.25;5053795;28;19920;-59
2021/11/23 03:04:54;;;;;;;;;;;;;;;12.91;100.00;102870.34;5053711;28;20340;-60
2021/11/23 03:07:20;;;;;;;;;;;;;;;12.92;100.00;102868.53;5054046;28;19924;-59
2021/11/23 03:09:46;;;;;;;;;;;;;;;12.84;100.00;102855.03;5051988;28;20124;-60
2021/11/23 03:12:19;;;;;;;;;;;;;;;12.96;100.00;102856.47;5054343;28;20325;-59
2021/11/23 03:14:44;;;;;;;;;;;;;;;12.87;100.00;102857.41;5052505;28;19940;-59
2021/11/23 03:17:10;;;;;;;;;;;;;;;12.96;100.00;102860.97;5052794;28;19920;-60
2021/11/23 03:19:35;;;;;;;;;;;;;;;12.98;100.00;102859.81;5052634;28;20357;-59
2021/11/23 03:22:02;;;;;;;;;;;;;;;13.00;100.00;102860.50;5052305;28;20021;-59
2021/11/23 03:24:28;;;;;;;;;;;;;;;12.61;100.00;102860.97;5053835;28;20454;-59
2021/11/23 03:26:53;;;;;;;;;;;;;;;12.94;100.00;102858.47;5085543;28;19916;-59
2021/11/23 03:29:19;;;;;;;;;;;;;;;12.89;100.00;102860.78;5053462;28;20012;-60
2021/11/23 03:31:44;;;;;;;;;;;;;;;13.10;100.00;102849.63;5053227;28;19960;-59
2021/11/23 03:34:10;;;;;;;;;;;;;;;13.04;100.00;102853.78;5053905;28;19974;-60
2021/11/23 03:36:40;;;;;;;;;;;;;;;13.04;100.00;102856.47;5085727;28;19920;-59
2021/11/23 03:39:06;;;;;;;;;;;;;;;13.22;100.00;102844.78;5052189;28;19963;-58
2021/11/23 03:41:31;;;;;;;;;;;;;;;13.28;100.00;102849.50;5068954;28;19960;-59
2021/11/23 03:43:57;;;;;;;;;;;;;;;13.28;100.00;102854.03;5068791;28;19920;-56
2021/11/23 03:46:23;;;;;;;;;;;;;;;13.27;100.00;102847.81;5085816;28;20283;-59
2021/11/23 03:48:48;;;;;;;;;;;;;;;13.15;100.00;102852.66;5053356;28;20283;-59
2021/11/23 03:51:14;;;;;;;;;;;;;;;13.25;100.00;102844.44;5068791;28;20392;-60
2021/11/23 03:53:39;;;;;;;;;;;;;;;13.27;100.00;102842.44;5053327;28;19952;-59
2021/11/23 03:56:06;;;;;;;;;;;;;;;13.20;100.00;102846.81;5052826;28;20368;-58
2021/11/23 03:58:31;;;;;;;;;;;;;;;13.01;100.00;102838.00;5053468;28;19927;-59
2021/11/23 04:00:57;;;;;;;;;;;;;;;12.98;100.00;102842.84;5052799;28;20288;-59
2021/11/23 04:03:22;;;;;;;;;;;;;;;12.96;100.00;102844.84;5053436;28;19928;-61
2021/11/23 04:05:47;;;;;;;;;;;;;;;12.86;100.00;102844.97;5053314;28;19955;-59
2021/11/23 04:08:13;;;;;;;;;;;;;;;12.85;100.00;102848.69;5052956;28;19967;-58
2021/11/23 04:10:39;;;;;;;;;;;;;;;12.93;100.00;102843.34;5052641;28;19920;-59
2021/11/23 04:13:04;;;;;;;;;;;;;;;12.97;100.00;102849.22;5085214;28;19920;-58
2021/11/23 04:15:29;;;;;;;;;;;;;;;12.98;100.00;102859.81;5085271;28;20254;-58
2021/11/23 04:17:55;;;;;;;;;;;;;;;13.04;100.00;102859.16;5052936;28;19928;-59
2021/11/23 04:20:20;;;;;;;;;;;;;;;13.10;100.00;102856.81;5052601;28;20039;-58
2021/11/23 04:22:46;;;;;;;;;;;;;;;13.19;100.00;102861.25;5055961;28;19924;-58
2021/11/23 04:25:12;;;;;;;;;;;;;;;13.20;100.00;102860.22;5056639;28;20284;-59
2021/11/23 04:27:38;;;;;;;;;;;;;;;13.30;100.00;102850.16;5056954;28;20009;-59
2021/11/23 04:30:05;;;;;;;;;;;;;;;13.04;100.00;102850.28;5056921;28;19920;-57
2021/11/23 04:32:30;;;;;;;;;;;;;;;13.02;100.00;102847.75;5056659;28;19932;-61
2021/11/23 04:34:57;;;;;;;;;;;;;;;13.15;100.00;102851.81;5057336;28;19939;-58
2021/11/23 04:37:22;;;;;;;;;;;;;;;13.00;100.00;102843.53;5055219;28;20356;-59
2021/11/23 04:39:49;;;;;;;;;;;;;;;13.08;100.00;102837.34;5088722;28;19931;-59
2021/11/23 04:42:14;;;;;;;;;;;;;;;13.42;100.00;102839.13;5055056;28;19921;-59
2021/11/23 04:44:40;;;;;;;;;;;;;;;13.40;100.00;102846.50;5056090;28;20407;-59
2021/11/23 04:47:05;;;;;;;;;;;;;;;13.31;100.00;102842.97;5056097;28;19925;-58
2021/11/23 04:49:31;;;;;;;;;;;;;;;13.47;100.00;102842.19;5071030;28;20367;-60
2021/11/23 04:51:56;;;;;;;;;;;;;;;13.57;100.00;102842.03;5056400;28;19920;-59
2021/11/23 04:54:22;;;;;;;;;;;;;;;13.50;100.00;102841.84;5055999;28;19924;-60
2021/11/23 04:56:47;;;;;;;;;;;;;;;13.60;100.00;102847.91;5056274;28;19952;-58
2021/11/23 04:59:13;;;;;;;;;;;;;;;13.65;100.00;102850.09;5056144;28;20019;-60
2021/11/23 05:01:38;;;;;;;;;;;;;;;13.67;100.00;102842.69;5056273;28;19920;-59
2021/11/23 05:04:04;;;;;;;;;;;;;;;13.75;100.00;102848.09;5055994;28;19921;-58
2021/11/23 05:06:30;;;;;;;;;;;;;;;13.77;100.00;102850.59;5054703;28;19980;-59
2021/11/23 05:08:55;;;;;;;;;;;;;;;13.85;100.00;102850.63;5072031;28;19940;-59
2021/11/23 05:11:21;;;;;;;;;;;;;;;13.84;100.00;102857.00;5055664;28;19944;-59
2021/11/23 05:13:47;;;;;;;;;;;;;;;13.79;100.00;102851.28;5056365;28;19974;-59
2021/11/23 05:16:12;;;;;;;;;;;;;;;13.82;100.00;102850.94;5055718;28;19920;-59
2021/11/23 05:18:37;;;;;;;;;;;;;;;13.80;100.00;102842.19;5055671;28;19961;-59
2021/11/23 05:21:03;;;;;;;;;;;;;;;13.37;100.00;102836.91;5055723;28;19919;-60
2021/11/23 05:23:28;;;;;;;;;;;;;;;13.46;100.00;102840.50;5055922;28;20015;-59
2021/11/23 05:25:56;;;;;;;;;;;;;;;13.64;100.00;102826.06;5055588;28;19916;-60
2021/11/23 05:28:21;;;;;;;;;;;;;;;13.58;100.00;102833.78;5054601;28;19916;-60
2021/11/23 05:30:48;;;;;;;;;;;;;;;13.70;100.00;102831.59;5055395;28;20331;-59
2021/11/23 05:33:13;;;;;;;;;;;;;;;13.75;100.00;102829.28;5054436;28;19931;-58
2021/11/23 05:35:38;;;;;;;;;;;;;;;13.66;100.00;102834.81;5055658;28;20242;-59
2021/11/23 05:38:04;;;;;;;;;;;;;;;13.65;100.00;102836.66;5055747;28;20284;-59
2021/11/23 05:40:29;;;;;;;;;;;;;;;13.65;100.00;102833.97;5055501;28;19923;-59
2021/11/23 05:42:54;;;;;;;;;;;;;;;13.66;100.00;102830.25;5055434;28;19978;-60
2021/11/23 05:45:20;;;;;;;;;;;;;;;13.52;100.00;102834.44;5055650;28;20339;-59
2021/11/23 05:47:45;;;;;;;;;;;;;;;13.66;100.00;102834.81;5053803;28;19917;-60
2021/11/23 05:50:11;;;;;;;;;;;;;;;13.58;100.00;102836.47;5087452;28;19924;-58
2021/11/23 05:52:36;;;;;;;;;;;;;;;13.48;100.00;102838.47;5055178;28;19948;-58
2021/11/23 05:55:01;;;;;;;;;;;;;;;13.36;100.00;102837.06;5053822;28;19939;-59
2021/11/23 05:57:27;;;;;;;;;;;;;;;13.29;100.00;102829.69;5087458;28;20356;-59
2021/11/23 05:59:52;;;;;;;;;;;;;;;13.38;100.00;102835.91;5087152;28;20376;-60
2021/11/23 06:02:18;;;;;;;;;;;;;;;13.15;100.00;102838.41;5054902;28;19913;-59
2021/11/23 06:04:44;;;;;;;;;;;;;;;13.22;100.00;102825.97;5054676;28;19923;-60
2021/11/23 06:07:09;;;;;;;;;;;;;;;12.99;100.00;102829.28;5054914;28;20360;-58
2021/11/23 06:09:34;;;;;;;;;;;;;;;13.53;100.00;102830.75;5054772;28;20003;-60
2021/11/23 06:12:00;;;;;;;;;;;;;;;13.27;100.00;102836.25;5055921;28;19919;-59
2021/11/23 06:14:25;;;;;;;;;;;;;;;13.52;100.00;102834.44;5055558;28;19917;-60
2021/11/23 06:16:51;;;;;;;;;;;;;;;13.62;100.00;102834.28;5055243;28;19932;-59
2021/11/23 06:19:16;;;;;;;;;;;;;;;13.61;100.00;102838.84;5053565;28;20020;-58
2021/11/23 06:21:42;;;;;;;;;;;;;;;13.53;100.00;102840.69;5055171;28;20375;-59
2021/11/23 06:24:08;;;;;;;;;;;;;;;13.47;100.00;102836.81;5054911;28;19921;-58
2021/11/23 06:26:34;;;;;;;;;;;;;;;13.20;100.00;102839.56;5055118;28;20024;-59
2021/11/23 06:28:59;;;;;;;;;;;;;;;13.32;100.00;102837.41;5055111;28;20385;-59
2021/11/23 06:31:24;;;;;;;;;;;;;;;13.52;100.00;102836.31;5071428;28;20264;-59
2021/11/23 06:33:54;;;;;;;;;;;;;;;13.57;100.00;102839.34;5092704;28;19920;-61
2021/11/23 06:36:19;;;;;;;;;;;;;;;13.36;100.00;102846.00;5065852;28;20304;-59
2021/11/23 06:38:46;;;;;;;;;;;;;;;13.52;100.00;102844.38;5063057;28;19916;-59
2021/11/23 06:41:12;;;;;;;;;;;;;;;13.34;100.00;102856.88;5058337;28;19916;-60
2021/11/23 06:43:37;;;;;;;;;;;;;;;13.42;100.00;102855.25;5057037;28;20326;-60
2021/11/23 06:46:03;;;;;;;;;;;;;;;13.53;100.00;102851.44;5055020;28;20312;-58
2021/11/23 06:48:28;;;;;;;;;;;;;;;13.57;100.00;102853.59;5053298;28;19920;-59
2021/11/23 06:50:53;;;;;;;;;;;;;;;13.49;100.00;102856.28;5057179;28;19917;-60
2021/11/23 06:53:19;;;;;;;;;;;;;;;13.56;100.00;102854.63;5059349;28;19939;-59
2021/11/23 06:55:44;;;;;;;;;;;;;;;13.64;100.00;102855.66;5060613;28;19956;-60
2021/11/23 06:58:10;;;;;;;;;;;;;;;13.50;100.00;102852.59;5073784;28;19923;-59
2021/11/23 07:00:35;;;;;;;;;;;;;;;13.08;100.00;102856.16;5086404;28;19975;-59
2021/11/23 07:03:00;;;;;;;;;;;;;;;13.45;100.00;102854.94;5053818;28;19967;-59
2021/11/23 07:05:26;;;;;;;;;;;;;;;13.55;100.00;102863.69;5053864;28;19917;-58
2021/11/23 07:07:52;;;;;;;;;;;;;;;13.26;100.00;102861.41;5053873;28;20296;-59
2021/11/23 07:10:18;;;;;;;;;;;;;;;13.41;100.00;102862.44;5052111;28;19921;-57
2021/11/23 07:12:43;;;;;;;;;;;;;;;13.11;100.00;102864.72;5053124;28;19923;-59
2021/11/23 07:15:09;;;;;;;;;;;;;;;13.28;100.00;102868.31;5069352;28;19925;-59
2021/11/23 07:17:34;;;;;;;;;;;;;;;13.35;100.00;102871.19;5053144;28;19912;-60
2021/11/23 07:20:00;;;;;;;;;;;;;;;13.29;100.00;102877.22;5085938;28;20007;-58
2021/11/23 07:22:25;;;;;;;;;;;;;;;13.34;100.00;102878.38;5054038;28;19947;-59
2021/11/23 07:24:51;;;;;;;;;;;;;;;13.41;100.00;102880.44;5054025;28;19966;-59
2021/11/23 07:27:17;;;;;;;;;;;;;;;13.37;100.00;102884.44;5052601;28;19916;-59
2021/11/23 07:29:42;;;;;;;;;;;;;;;13.34;100.00;102891.00;5052916;28;19967;-58
2021/11/23 07:32:08;;;;;;;;;;;;;;;13.45;100.00;102897.94;5053374;28;20024;-58
2021/11/23 07:34:34;;;;;;;;;;;;;;;13.51;100.00;102897.28;5068558;28;19921;-58
2021/11/23 07:36:59;;;;;;;;;;;;;;;13.35;100.00;102900.75;5053362;28;20403;-58
2021/11/23 07:39:27;;;;;;;;;;;;;;;13.62;100.00;102901.50;5085325;28;19916;-59
2021/11/23 07:41:53;;;;;;;;;;;;;;;13.66;100.00;102904.72;5052791;28;20407;-59
2021/11/23 07:44:18;;;;;;;;;;;;;;;13.78;100.00;102903.38;5053194;28;19920;-59
2021/11/23 07:46:43;;;;;;;;;;;;;;;13.90;100.00;102901.19;5051785;28;20365;-59
2021/11/23 07:49:09;;;;;;;;;;;;;;;13.79;100.00;102901.53;5053295;28;20015;-60
2021/11/23 07:51:35;;;;;;;;;;;;;;;13.87;100.00;102902.41;5053334;28;20013;-60
2021/11/23 07:54:01;;;;;;;;;;;;;;;13.77;100.00;102904.38;5052776;28;19943;-59
2021/11/23 07:56:26;;;;;;;;;;;;;;;13.87;100.00;102907.78;5055553;28;19916;-60
2021/11/23 07:58:52;;;;;;;;;;;;;;;14.03;100.00;102901.56;5060349;28;19924;-60
2021/11/23 08:01:17;;;;;;;;;;;;;;;14.06;100.00;102919.19;5059974;28;19967;-60
2021/11/23 08:03:43;;;;;;;;;;;;;;;13.88;100.00;102908.59;5058506;28;19970;-59
2021/11/23 08:06:08;;;;;;;;;;;;;;;13.95;100.00;102914.97;5060041;28;20361;-59
2021/11/23 08:08:34;;;;;;;;;;;;;;;14.05;100.00;102915.69;5092594;28;19921;-60
2021/11/23 08:11:00;;;;;;;;;;;;;;;14.11;100.00;102916.88;5060570;28;20352;-60
2021/11/23 08:13:26;;;;;;;;;;;;;;;14.16;100.00;102921.72;5060027;28;19924;-59
2021/11/23 08:15:51;;;;;;;;;;;;;;;14.07;100.00;102928.97;5059392;28;19924;-60
2021/11/23 08:18:16;;;;;;;;;;;;;;;14.26;100.00;102925.09;5059436;28;20304;-60
2021/11/23 08:20:43;;;;;;;;;;;;;;;14.27;100.00;102924.09;5060018;28;19996;-58
2021/11/23 08:23:09;;;;;;;;;;;;;;;14.46;100.00;102935.50;5059552;28;19925;-59
2021/11/23 08:25:34;;;;;;;;;;;;;;;14.62;100.00;102937.34;5059511;28;19923;-58
2021/11/23 08:28:00;;;;;;;;;;;;;;;14.74;100.00;102935.97;5059325;28;20134;-60
2021/11/23 08:30:25;;;;;;;;;;;;;;;14.69;100.00;102935.63;5059486;28;19917;-58
2021/11/23 08:32:51;;;;;;;;;;;;;;;14.84;100.00;102929.56;5091426;28;19928;-58
2021/11/23 08:35:17;;;;;;;;;;;;;;;14.83;100.00;102935.97;5059046;28;19917;-59
2021/11/23 08:37:42;;;;;;;;;;;;;;;14.88;100.00;102939.00;5058890;28;19920;-59
2021/11/23 08:40:08;;;;;;;;;;;;;;;14.84;100.00;102934.97;5058408;28;19928;-59
2021/11/23 08:42:34;;;;;;;;;;;;;;;14.58;100.00;102931.44;5058114;28;19986;-59
2021/11/23 08:45:00;;;;;;;;;;;;;;;14.88;100.00;102937.16;5059300;28;19944;-58
2021/11/23 08:47:26;;;;;;;;;;;;;;;15.02;100.00;102940.13;5059721;28;20366;-59
2021/11/23 08:49:52;;;;;;;;;;;;;;;15.12;100.00;102948.84;5059122;28;20166;-58
2021/11/23 08:52:18;;;;;;;;;;;;;;;15.10;100.00;102945.47;5058947;28;19974;-59
2021/11/23 08:54:44;;;;;;;;;;;;;;;14.98;100.00;102936.91;5059038;28;19921;-60
2021/11/23 08:57:10;;;;;;;;;;;;;;;15.09;100.00;102942.97;5058938;28;19928;-59
2021/11/23 08:59:40;;;;;;;;;;;;;;;15.21;100.00;102957.72;5059469;28;20332;-58
2021/11/23 09:02:06;;;;;;;;;;;;;;;15.38;100.00;102946.88;5059023;28;19917;-59
2021/11/23 09:04:33;;;;;;;;;;;;;;;15.40;100.00;102934.91;5058454;28;19999;-57
2021/11/23 09:07:02;;;;;;;;;;;;;;;15.49;100.00;102938.41;5059058;28;19939;-59
2021/11/23 09:09:28;;;;;;;;;;;;;;;15.70;100.00;102940.47;5053525;28;19928;-59
2021/11/23 09:11:54;;;;;;;;;;;;;;;15.96;100.00;102943.88;5055311;28;20292;-59
2021/11/23 09:14:19;;;;;;;;;;;;;;;16.46;100.00;102942.44;5055868;28;19946;-60
2021/11/23 09:16:45;;;;;;;;;;;;;;;16.73;100.00;102939.31;5087886;28;20354;-58
2021/11/23 09:19:10;;;;;;;;;;;;;;;17.44;100.00;102940.66;5056167;28;19921;-59
2021/11/23 09:21:36;;;;;;;;;;;;;;;17.63;100.00;102937.34;5071067;28;20289;-59
2021/11/23 09:24:01;;;;;;;;;;;;;;;17.50;100.00;102934.47;5055618;28;20029;-59
2021/11/23 09:26:27;;;;;;;;;;;;;;;17.34;100.00;102939.09;5056256;28;19928;-59
2021/11/23 09:28:53;;;;;;;;;;;;;;;17.18;100.00;102942.88;5055317;28;20095;-57
2021/11/23 09:31:19;;;;;;;;;;;;;;;16.99;100.00;102955.06;5055107;28;19923;-59
2021/11/23 09:33:45;;;;;;;;;;;;;;;17.24;100.00;102949.34;5055616;28;19917;-58
2021/11/23 09:36:10;;;;;;;;;;;;;;;17.52;100.00;102945.94;5054272;28;19913;-60
2021/11/23 09:38:37;;;;;;;;;;;;;;;17.80;100.00;102949.78;5054130;28;19917;-54
2021/11/23 09:41:06;;;;;;;;;;;;;;;17.72;100.00;102953.44;5070711;28;19928;-60
2021/11/23 09:43:32;;;;;;;;;;;;;;;17.70;100.00;102945.53;5054768;28;20316;-59
2021/11/23 09:45:57;;;;;;;;;;;;;;;17.82;100.00;102945.88;5054942;28;19929;-60
2021/11/23 09:48:23;;;;;;;;;;;;;;;17.67;100.00;102940.50;5055203;28;19921;-59
2021/11/23 09:50:50;;;;;;;;;;;;;;;17.79;100.00;102940.84;5055206;28;19920;-59
2021/11/23 09:53:17;;;;;;;;;;;;;;;18.00;100.00;102941.88;5070964;28;19916;-58
2021/11/23 09:55:43;;;;;;;;;;;;;;;18.28;100.00;102941.09;5055280;28;19917;-59
2021/11/23 09:58:12;;;;;;;;;;;;;;;17.68;100.00;102931.38;5054877;28;19921;-60
2021/11/23 10:00:42;;;;;;;;;;;;;;;17.77;100.00;102938.31;5054703;28;20344;-59
2021/11/23 10:03:11;;;;;;;;;;;;;;;17.29;100.00;102936.09;5053674;28;19917;-59
2021/11/23 10:05:38;;;;;;;;;;;;;;;17.76;100.00;102946.59;5070556;28;20035;-59
2021/11/23 10:08:09;;;;;;;;;;;;;;;17.87;100.00;102950.69;5054643;28;20440;-59
2021/11/23 10:10:45;;;;;;;;;;;;;;;17.88;100.00;102952.38;5054923;28;19917;-61
2021/11/23 10:13:12;;;;;;;;;;;;;;;18.00;100.00;102947.28;5055319;28;19924;-59
2021/11/23 10:15:41;;;;;;;;;;;;;;;17.53;100.00;102938.69;5087286;28;19923;-59
2021/11/23 10:18:15;;;;;;;;;;;;;;;17.90;100.00;102939.50;5054192;28;19924;-59
2021/11/23 10:20:49;;;;;;;;;;;;;;;18.02;100.00;102942.56;5054097;28;20365;-59
2021/11/23 10:23:31;;;;;;;;;;;;;;;18.32;100.00;102939.66;5054356;28;20003;-59
2021/11/23 10:26:12;;;;;;;;;;;;;;;18.43;100.00;102935.59;5054357;28;20106;-60
2021/11/23 10:28:37;;;;;;;;;;;;;;;18.93;100.00;102938.19;5054967;28;20344;-60
2021/11/23 10:31:05;;;;;;;;;;;;;;;19.40;100.00;102943.00;5054664;28;20011;-59
2021/11/23 10:33:31;;;;;;;;;;;;;;;19.30;100.00;102944.22;5054403;28;19978;-59
2021/11/23 10:35:59;;;;;;;;;;;;;;;19.48;100.00;102943.63;5054776;28;19916;-58
2021/11/23 10:38:25;;;;;;;;;;;;;;;19.66;100.00;102933.28;5052936;28;19913;-59
2021/11/23 10:40:50;;;;;;;;;;;;;;;19.87;100.00;102940.38;5055053;28;19920;-60
2021/11/23 10:43:17;;;;;;;;;;;;;;;19.84;100.00;102943.53;5054938;28;19935;-60
2021/11/23 10:45:44;;;;;;;;;;;;;;;20.03;100.00;102941.91;5052731;28;19924;-60
2021/11/23 10:48:10;;;;;;;;;;;;;;;21.53;87.53;102934.00;5054584;28;19927;-60
2021/11/23 10:50:37;;;;;;;;;;;;;;;20.95;89.17;102934.91;5053095;28;19923;-59
2021/11/23 10:53:04;;;;;;;;;;;;;;;21.17;85.28;102927.28;5086099;28;19971;-59
2021/11/23 10:55:31;;;;;;;;;;;;;;;21.28;84.23;102931.19;5053782;28;19923;-59
2021/11/23 10:57:58;;;;;;;;;;;;;;;21.78;79.63;102922.34;5054211;28;19916;-59
2021/11/23 11:00:27;;;;;;;;;;;;;;;22.83;71.68;102919.94;5054215;28;19912;-59
2021/11/23 11:02:55;;;;;;;;;;;;;;;24.65;60.19;102928.09;5054367;28;19982;-59
2021/11/23 11:05:20;;;;;;;;;;;;;;;26.19;51.28;102934.81;5053068;28;20277;-60
2021/11/23 11:07:47;;;;;;;;;;;;;;;26.88;48.31;102937.41;5053563;28;19913;-59
2021/11/23 11:10:12;;;;;;;;;;;;;;;26.68;46.63;102935.22;5053480;28;19942;-60
2021/11/23 11:12:38;;;;;;;;;;;;;;;25.72;49.32;102925.00;5053545;28;19921;-59
2021/11/23 11:15:06;;;;;;;;;;;;;;;25.06;53.22;102933.63;5085485;28;20388;-59
2021/11/23 11:17:32;;;;;;;;;;;;;;;26.88;47.26;102924.53;5053247;28;19926;-59
2021/11/23 11:19:59;;;;;;;;;;;;;;;27.78;43.22;102922.41;5053389;28;20004;-59
2021/11/23 11:22:26;;;;;;;;;;;;;;;28.29;40.55;102923.88;5053856;28;19921;-59
2021/11/23 11:27:46;;;;;;;;;;;;;;;27.26;42.99;102919.16;5085777;28;19923;-60
2021/11/23 11:30:35;;;;;;;;;;;;;;;26.28;46.13;102915.19;5052353;28;19943;-60
2021/11/23 11:33:03;;;;;;;;;;;;;;;26.69;44.84;102915.72;5053138;28;19916;-60
2021/11/23 11:35:36;;;;;;;;;;;;;;;26.07;46.73;102914.88;5053873;28;19967;-60
2021/11/23 11:38:04;;;;;;;;;;;;;;;25.69;48.49;102913.69;5053422;28;19960;-59
2021/11/23 11:40:32;;;;;;;;;;;;;;;24.75;52.25;102917.41;5052547;28;19963;-59
2021/11/23 11:43:00;;;;;;;;;;;;;;;24.25;53.95;102907.81;5052861;28;20016;-59
2021/11/23 11:45:37;;;;;;;;;;;;;;;23.38;63.72;102915.47;5052773;28;19994;-59
2021/11/23 11:48:21;;;;;;;;;;;;;;;22.16;76.05;102901.50;5053541;28;19917;-59
2021/11/23 11:50:56;;;;;;;;;;;;;;;21.83;78.94;102900.75;5051518;28;19935;-60
2021/11/23 11:53:21;;;;;;;;;;;;;;;20.91;81.95;102889.13;5068901;28;20018;-60
2021/11/23 11:55:48;;;;;;;;;;;;;;;20.76;90.37;102892.06;5068064;28;19999;-60
2021/11/23 11:58:33;;;;;;;;;;;;;;;20.65;93.25;102900.06;5053093;28;19916;-59
2021/11/23 12:01:17;;;;;;;;;;;;;;;20.42;91.83;102895.91;5052984;28;19925;-63
2021/11/23 12:03:42;;;;;;;;;;;;;;;20.40;94.81;102898.00;5053185;28;20368;-60
2021/11/23 12:06:08;;;;;;;;;;;;;;;20.46;94.12;102894.44;5053234;28;20026;-59
2021/11/23 12:08:35;;;;;;;;;;;;;;;20.23;93.87;102893.00;5053012;28;19921;-58
2021/11/23 12:11:01;;;;;;;;;;;;;;;20.83;84.93;102885.78;5053159;28;19924;-59
2021/11/23 12:13:32;;;;;;;;;;;;;;;20.93;79.57;102886.16;5053876;28;20008;-59
2021/11/23 12:16:03;;;;;;;;;;;;;;;20.98;81.09;102878.19;5052828;28;19991;-59
2021/11/23 12:18:38;;;;;;;;;;;;;;;21.29;76.05;102882.03;5053036;28;19921;-60
2021/11/23 12:21:08;;;;;;;;;;;;;;;21.40;73.60;102885.94;5052052;28;19940;-59
2021/11/23 12:23:37;;;;;;;;;;;;;;;21.39;73.74;102884.28;5052949;28;19916;-58
2021/11/23 12:26:07;;;;;;;;;;;;;;;21.23;74.75;102882.06;5052858;28;19916;-59
2021/11/23 12:28:33;;;;;;;;;;;;;;;21.18;76.85;102877.25;5052014;28;20322;-59